createdAt,value
2022-08-17T00:02:25.501Z,91.77
2022-08-17T00:07:29.202Z,90.92
2022-08-17T00:12:40.598Z,95.78
2022-08-17T00:17:55.204Z,93.67
2022-08-17T00:23:06.735Z,86.66
2022-08-17T00:28:09.478Z,89.09
2022-08-17T00:33:17.093Z,92.74
2022-08-17T00:38:20.232Z,96.27
2022-08-17T00:43:29.970Z,94.46
2022-08-17T00:48:34.631Z,93.40
2022-08-17T00:53:42.840Z,86.63
2022-08-17T00:58:46.035Z,82.78
2022-08-17T01:03:51.298Z,81.54
2022-08-17T01:08:57.944Z,84.77
2022-08-17T01:14:00.759Z,91.30
2022-08-17T01:19:06.941Z,88.27
2022-08-17T01:24:11.034Z,88.00
2022-08-17T01:29:13.533Z,86.94
2022-08-17T01:34:18.258Z,92.51
2022-08-17T01:39:26.707Z,95.05
2022-08-17T01:44:29.284Z,90.66
2022-08-17T01:49:32.090Z,88.00
2022-08-17T01:54:37.927Z,91.74
2022-08-17T01:59:40.732Z,93.83
2022-08-17T02:04:43.274Z,87.16
2022-08-17T02:09:49.373Z,84.96
2022-08-17T02:14:55.279Z,87.03
2022-08-17T02:19:57.759Z,92.88
2022-08-17T02:25:02.972Z,95.58
2022-08-17T02:30:59.055Z,96.60
2022-08-17T02:35:29.467Z,99.39
2022-08-17T02:40:36.456Z,100.00
2022-08-17T02:45:39.628Z,100.00
2022-08-17T02:50:42.143Z,93.08
2022-08-17T02:55:46.009Z,92.95
2022-08-17T03:00:48.787Z,91.74
2022-08-17T03:05:53.130Z,96.34
2022-08-17T03:10:57.662Z,89.77
2022-08-17T03:16:00.146Z,85.31
2022-08-17T03:21:04.508Z,83.79
2022-08-17T03:26:12.209Z,82.01
2022-08-17T03:31:18.508Z,81.83
2022-08-17T03:36:21.037Z,81.60
2022-08-17T03:41:24.843Z,82.10
2022-08-17T03:46:45.290Z,82.68
2022-08-17T03:52:04.503Z,84.76
2022-08-17T03:57:11.228Z,93.70
2022-08-17T04:02:19.749Z,91.63
2022-08-17T04:07:24.379Z,97.58
2022-08-17T04:12:30.866Z,96.95
2022-08-17T04:17:33.690Z,89.85
2022-08-17T04:22:36.150Z,85.30
2022-08-17T04:27:40.074Z,85.42
2022-08-17T04:33:04.386Z,85.62
2022-08-17T04:38:19.379Z,83.03
2022-08-17T04:43:25.822Z,84.11
2022-08-17T04:48:36.400Z,85.65
2022-08-17T04:53:40.533Z,84.60
2022-08-17T04:58:44.883Z,81.56
2022-08-17T05:03:47.323Z,80.73
2022-08-17T05:08:49.863Z,78.38
2022-08-17T05:13:54.154Z,79.21
2022-08-17T05:18:58.569Z,79.00
2022-08-17T05:24:01.059Z,78.87
2022-08-17T05:29:09.770Z,81.11
2022-08-17T05:34:12.198Z,81.46
2022-08-17T05:39:16.657Z,80.27
2022-08-17T05:44:21.066Z,79.15
2022-08-17T05:49:28.046Z,79.71
2022-08-17T05:54:39.883Z,77.66
2022-08-17T05:59:51.849Z,76.83
2022-08-17T06:05:09.095Z,75.79
2022-08-17T06:10:18.239Z,74.94
2022-08-17T06:15:31.312Z,73.97
2022-08-17T06:20:39.427Z,72.69
2022-08-17T06:25:47.188Z,71.70
2022-08-17T06:30:59.698Z,71.83
2022-08-17T06:36:15.786Z,72.79
2022-08-17T06:41:26.820Z,73.55
2022-08-17T06:46:37.674Z,71.07
2022-08-17T06:51:42.234Z,71.23
2022-08-17T06:56:54.566Z,72.30
2022-08-17T07:02:05.267Z,69.57
2022-08-17T07:07:24.954Z,67.61
2022-08-17T07:12:37.414Z,67.84
2022-08-17T07:17:47.498Z,66.63
2022-08-17T07:23:00.284Z,65.67
2022-08-17T07:28:07.840Z,66.50
2022-08-17T07:33:14.065Z,64.96
2022-08-17T07:38:24.161Z,65.01
2022-08-17T07:43:31.169Z,63.42
2022-08-17T07:48:39.174Z,63.17
2022-08-17T07:53:42.223Z,62.75
2022-08-17T07:58:47.368Z,63.02
2022-08-17T08:03:52.818Z,61.36
2022-08-17T08:08:57.205Z,61.69
2022-08-17T08:14:28.626Z,60.70
2022-08-17T08:19:33.459Z,59.72
2022-08-17T08:24:59.155Z,59.62
2022-08-17T08:30:09.620Z,57.53
2022-08-17T08:35:23.305Z,57.03
2022-08-17T08:40:34.419Z,55.75
2022-08-17T08:45:45.663Z,55.47
2022-08-17T08:50:58.733Z,55.06
2022-08-17T08:56:07.596Z,54.55
2022-08-17T09:01:19.294Z,53.64
2022-08-17T09:06:39.601Z,54.16
2022-08-17T09:12:02.497Z,53.10
2022-08-17T09:17:12.666Z,52.77
2022-08-17T09:22:31.279Z,51.54
2022-08-17T09:27:39.130Z,50.31
2022-08-17T09:32:43.992Z,50.76
2022-08-17T09:37:57.017Z,49.87
2022-08-17T09:43:05.092Z,49.02
2022-08-17T09:48:14.341Z,50.37
2022-08-17T09:53:22.428Z,49.45
2022-08-17T09:58:38.895Z,49.52
2022-08-17T10:04:01.756Z,48.51
2022-08-17T10:09:15.298Z,47.47
2022-08-17T10:14:37.873Z,45.66
2022-08-17T10:19:57.139Z,47.28
2022-08-17T10:25:26.028Z,46.78
2022-08-17T10:30:36.030Z,45.56
2022-08-17T10:35:49.820Z,42.09
2022-08-17T10:40:59.318Z,39.34
2022-08-17T10:46:30.845Z,33.97
2022-08-17T10:51:39.361Z,37.88
2022-08-17T10:56:50.461Z,36.38
2022-08-17T11:02:05.225Z,35.04
2022-08-17T11:07:18.369Z,35.57
2022-08-17T11:12:36.834Z,35.69
2022-08-17T11:18:01.622Z,36.93
2022-08-17T11:23:23.711Z,36.94
2022-08-17T11:28:34.367Z,33.86
2022-08-17T11:33:58.965Z,35.12
2022-08-17T11:39:07.031Z,36.07
2022-08-17T11:44:30.231Z,36.33
2022-08-17T11:50:09.977Z,32.20
2022-08-17T11:55:50.913Z,34.73
2022-08-17T12:00:57.890Z,37.87
2022-08-17T12:06:05.156Z,37.68
2022-08-17T12:11:11.791Z,34.34
2022-08-17T12:16:18.390Z,35.89
2022-08-17T12:21:29.992Z,33.86
2022-08-17T12:26:34.540Z,34.38
2022-08-17T12:31:48.098Z,37.69
2022-08-17T12:36:52.888Z,34.96
2022-08-17T12:42:02.179Z,34.88
2022-08-17T12:47:19.375Z,34.73
2022-08-17T12:52:26.925Z,35.03
2022-08-17T12:57:33.647Z,35.62
2022-08-17T13:02:45.072Z,34.92
2022-08-17T13:07:47.973Z,36.92
2022-08-17T13:12:52.415Z,34.65
2022-08-17T13:18:04.811Z,34.45
2022-08-17T13:23:12.428Z,37.26
2022-08-17T13:28:29.907Z,37.49
2022-08-17T13:33:44.520Z,34.62
2022-08-17T13:38:50.902Z,33.04
2022-08-17T13:43:53.781Z,33.14
2022-08-17T13:49:04.091Z,35.59
2022-08-17T13:54:19.682Z,34.68
2022-08-17T13:59:55.229Z,34.12
2022-08-17T14:05:02.032Z,33.79
2022-08-17T14:10:13.596Z,34.30
2022-08-17T14:15:20.523Z,34.63
2022-08-17T14:20:24.624Z,33.31
2022-08-17T14:25:29.637Z,35.24
2022-08-17T14:30:32.147Z,34.73
2022-08-17T14:35:35.985Z,32.69
2022-08-17T14:40:39.343Z,30.83
2022-08-17T14:45:41.827Z,32.02
2022-08-17T14:50:46.183Z,33.53
2022-08-17T14:55:50.848Z,35.07
2022-08-17T15:00:53.341Z,35.79
2022-08-17T15:05:57.436Z,35.51
2022-08-17T15:10:59.952Z,35.37
2022-08-17T15:16:03.263Z,34.63
2022-08-17T15:21:09.552Z,35.98
2022-08-17T15:26:12.210Z,34.47
2022-08-17T15:31:15.036Z,34.10
2022-08-17T15:36:19.320Z,33.05
2022-08-17T15:41:22.032Z,33.69
2022-08-17T15:46:27.950Z,33.67
2022-08-17T15:51:33.411Z,34.46
2022-08-17T15:56:36.019Z,34.28
2022-08-17T16:02:16.299Z,33.26
2022-08-17T16:07:02.418Z,34.49
2022-08-17T16:12:13.175Z,36.46
2022-08-17T16:17:40.206Z,35.22
2022-08-17T16:22:43.997Z,36.29
2022-08-17T16:27:47.610Z,36.42
2022-08-17T16:32:51.594Z,37.37
2022-08-17T16:37:57.094Z,37.80
2022-08-17T16:43:00.153Z,36.02
2022-08-17T16:48:02.686Z,37.38
2022-08-17T16:53:08.985Z,38.50
2022-08-17T16:58:12.078Z,38.53
2022-08-17T17:03:19.469Z,40.39
2022-08-17T17:08:30.431Z,40.53
2022-08-17T17:13:39.470Z,39.05
2022-08-17T17:18:57.287Z,39.64
2022-08-17T17:24:06.075Z,41.83
2022-08-17T17:29:20.958Z,41.81
2022-08-17T17:34:26.597Z,42.67
2022-08-17T17:39:36.367Z,44.80
2022-08-17T17:44:41.798Z,44.00
2022-08-17T17:49:48.543Z,43.74
2022-08-17T17:55:02.943Z,45.91
2022-08-17T18:00:12.715Z,47.05
2022-08-17T18:05:28.903Z,48.60
2022-08-17T18:10:42.770Z,50.02
2022-08-17T18:15:51.084Z,50.88
2022-08-17T18:21:04.464Z,51.69
2022-08-17T18:26:08.356Z,53.21
2022-08-17T18:31:17.920Z,52.56
2022-08-17T18:36:29.461Z,54.68
2022-08-17T18:41:41.278Z,54.96
2022-08-17T18:46:43.836Z,56.72
2022-08-17T18:51:47.209Z,56.10
2022-08-17T18:56:52.158Z,57.77
2022-08-17T19:07:46.202Z,57.47
2022-08-17T19:13:00.842Z,57.03
2022-08-17T19:18:15.694Z,55.79
2022-08-17T19:23:24.957Z,59.64
2022-08-17T19:28:37.830Z,59.77
2022-08-17T19:33:40.668Z,59.69
2022-08-17T19:38:52.987Z,61.70
2022-08-17T19:44:13.042Z,62.48
2022-08-17T19:49:34.507Z,61.32
2022-08-17T19:54:52.359Z,62.73
2022-08-17T20:00:02.359Z,63.06
2022-08-17T20:05:12.344Z,62.79
2022-08-17T20:10:24.454Z,63.48
2022-08-17T20:15:30.847Z,64.83
2022-08-17T20:20:42.443Z,65.65
2022-08-17T20:26:04.790Z,64.92
2022-08-17T20:31:37.083Z,66.90
2022-08-17T20:36:59.338Z,66.41
2022-08-17T20:42:09.869Z,64.89
2022-08-17T20:47:21.792Z,63.97
2022-08-17T20:52:47.769Z,64.86
2022-08-17T20:57:50.535Z,65.78
2022-08-17T21:03:28.094Z,69.21
2022-08-17T21:08:58.830Z,70.15
2022-08-17T21:14:09.115Z,69.63
2022-08-17T21:19:54.220Z,69.18
2022-08-17T21:25:14.390Z,65.98
2022-08-17T21:30:44.636Z,67.60
2022-08-17T21:35:50.623Z,68.33
2022-08-17T21:40:55.354Z,68.79
2022-08-17T21:46:02.312Z,68.79
2022-08-17T21:51:12.174Z,69.74
2022-08-17T21:56:25.021Z,69.09
2022-08-17T22:01:30.567Z,66.98
2022-08-17T22:06:38.399Z,68.96
2022-08-17T22:12:01.164Z,69.26
2022-08-17T22:17:09.646Z,70.55
2022-08-17T22:22:26.262Z,70.92
2022-08-17T22:27:53.529Z,70.58
2022-08-17T22:32:56.523Z,69.83
2022-08-17T22:38:25.613Z,66.41
2022-08-17T22:43:31.204Z,66.62
2022-08-17T22:48:38.856Z,73.71
2022-08-17T22:54:04.207Z,68.50
2022-08-17T22:59:20.958Z,69.77
2022-08-17T23:04:32.615Z,67.71
2022-08-17T23:09:35.838Z,67.89
2022-08-17T23:14:45.793Z,67.91
2022-08-17T23:19:48.480Z,67.92
2022-08-17T23:24:51.233Z,66.81
2022-08-17T23:29:55.597Z,67.58
2022-08-17T23:34:59.182Z,66.68
2022-08-17T23:40:01.703Z,68.32
2022-08-17T23:45:07.808Z,68.59
2022-08-17T23:50:11.080Z,70.54
2022-08-17T23:55:16.284Z,69.20
